sensor_id;sensor_type;location;lat;lon;timestamp;P1;durP1;ratioP1;P2;durP2;ratioP2
39888;SDS011;25563;50.844;4.308;2022-11-15T00:01:48;30.42;;;21.50;;
39888;SDS011;25563;50.844;4.308;2022-11-15T00:04:14;31.73;;;22.27;;
39888;SDS011;25563;50.844;4.308;2022-11-15T00:06:40;33.08;;;23.67;;
39888;SDS011;25563;50.844;4.308;2022-11-15T00:09:05;29.05;;;21.65;;
39888;SDS011;25563;50.844;4.308;2022-11-15T00:11:31;30.40;;;21.88;;
39888;SDS011;25563;50.844;4.308;2022-11-15T00:13:57;28.50;;;21.98;;
39888;SDS011;25563;50.844;4.308;2022-11-15T00:16:23;29.55;;;22.55;;
39888;SDS011;25563;50.844;4.308;2022-11-15T00:18:50;29.90;;;22.58;;
39888;SDS011;25563;50.844;4.308;2022-11-15T00:21:16;29.75;;;23.15;;
39888;SDS011;25563;50.844;4.308;2022-11-15T00:23:43;31.17;;;22.63;;
39888;SDS011;25563;50.844;4.308;2022-11-15T00:26:11;34.08;;;22.88;;
39888;SDS011;25563;50.844;4.308;2022-11-15T00:28:38;27.88;;;23.52;;
39888;SDS011;25563;50.844;4.308;2022-11-15T00:31:05;27.65;;;22.48;;
39888;SDS011;25563;50.844;4.308;2022-11-15T00:36:06;37.33;;;22.88;;
39888;SDS011;25563;50.844;4.308;2022-11-15T00:38:38;29.73;;;22.50;;
39888;SDS011;25563;50.844;4.308;2022-11-15T00:41:05;36.22;;;23.80;;
39888;SDS011;25563;50.844;4.308;2022-11-15T00:43:32;32.70;;;23.67;;
39888;SDS011;25563;50.844;4.308;2022-11-15T00:45:58;29.88;;;22.58;;
39888;SDS011;25563;50.844;4.308;2022-11-15T00:48:24;37.38;;;22.48;;
39888;SDS011;25563;50.844;4.308;2022-11-15T00:50:50;33.65;;;23.38;;
39888;SDS011;25563;50.844;4.308;2022-11-15T00:53:16;31.67;;;23.42;;
39888;SDS011;25563;50.844;4.308;2022-11-15T00:55:42;37.58;;;24.15;;
39888;SDS011;25563;50.844;4.308;2022-11-15T00:58:08;30.33;;;23.52;;
39888;SDS011;25563;50.844;4.308;2022-11-15T01:00:34;36.75;;;24.08;;
39888;SDS011;25563;50.844;4.308;2022-11-15T01:03:00;29.70;;;22.67;;
39888;SDS011;25563;50.844;4.308;2022-11-15T01:05:27;35.20;;;23.10;;
39888;SDS011;25563;50.844;4.308;2022-11-15T01:07:53;40.25;;;23.45;;
39888;SDS011;25563;50.844;4.308;2022-11-15T01:10:19;31.65;;;23.77;;
39888;SDS011;25563;50.844;4.308;2022-11-15T01:12:45;28.20;;;22.10;;
39888;SDS011;25563;50.844;4.308;2022-11-15T01:15:11;37.58;;;23.70;;
39888;SDS011;25563;50.844;4.308;2022-11-15T01:17:36;37.95;;;25.45;;
39888;SDS011;25563;50.844;4.308;2022-11-15T01:20:02;41.92;;;23.80;;
39888;SDS011;25563;50.844;4.308;2022-11-15T01:22:28;33.95;;;24.65;;
39888;SDS011;25563;50.844;4.308;2022-11-15T01:24:55;36.08;;;25.65;;
39888;SDS011;25563;50.844;4.308;2022-11-15T01:27:21;38.13;;;24.25;;
39888;SDS011;25563;50.844;4.308;2022-11-15T01:29:47;46.42;;;25.60;;
39888;SDS011;25563;50.844;4.308;2022-11-15T01:32:12;31.90;;;24.77;;
39888;SDS011;25563;50.844;4.308;2022-11-15T01:34:38;37.17;;;25.00;;
39888;SDS011;25563;50.844;4.308;2022-11-15T01:37:04;34.08;;;24.65;;
39888;SDS011;25563;50.844;4.308;2022-11-15T01:39:29;37.17;;;25.88;;
39888;SDS011;25563;50.844;4.308;2022-11-15T01:41:55;38.63;;;24.67;;
39888;SDS011;25563;50.844;4.308;2022-11-15T01:46:56;36.75;;;22.10;;
39888;SDS011;25563;50.844;4.308;2022-11-15T01:49:24;30.58;;;22.83;;
39888;SDS011;25563;50.844;4.308;2022-11-15T01:54:20;27.63;;;20.85;;
39888;SDS011;25563;50.844;4.308;2022-11-15T01:56:48;32.22;;;22.45;;
39888;SDS011;25563;50.844;4.308;2022-11-15T01:59:20;28.13;;;22.38;;
39888;SDS011;25563;50.844;4.308;2022-11-15T02:01:47;33.45;;;22.15;;
39888;SDS011;25563;50.844;4.308;2022-11-15T02:04:13;28.80;;;21.75;;
39888;SDS011;25563;50.844;4.308;2022-11-15T02:06:42;27.38;;;22.75;;
39888;SDS011;25563;50.844;4.308;2022-11-15T02:09:09;30.80;;;22.45;;
39888;SDS011;25563;50.844;4.308;2022-11-15T02:11:36;26.23;;;21.80;;
39888;SDS011;25563;50.844;4.308;2022-11-15T02:14:02;36.75;;;21.98;;
39888;SDS011;25563;50.844;4.308;2022-11-15T02:22:03;33.88;;;23.25;;
39888;SDS011;25563;50.844;4.308;2022-11-15T02:30:04;30.00;;;22.77;;
39888;SDS011;25563;50.844;4.308;2022-11-15T02:32:44;29.85;;;20.58;;
39888;SDS011;25563;50.844;4.308;2022-11-15T02:41:16;27.83;;;21.20;;
39888;SDS011;25563;50.844;4.308;2022-11-15T02:43:54;31.58;;;20.58;;
39888;SDS011;25563;50.844;4.308;2022-11-15T02:49:24;27.13;;;19.58;;
39888;SDS011;25563;50.844;4.308;2022-11-15T02:51:53;21.58;;;19.25;;
39888;SDS011;25563;50.844;4.308;2022-11-15T02:54:25;37.40;;;19.55;;
39888;SDS011;25563;50.844;4.308;2022-11-15T02:56:54;22.85;;;17.92;;
39888;SDS011;25563;50.844;4.308;2022-11-15T03:05:04;30.58;;;16.92;;
39888;SDS011;25563;50.844;4.308;2022-11-15T03:08:00;20.70;;;17.63;;
39888;SDS011;25563;50.844;4.308;2022-11-15T03:16:47;17.98;;;13.57;;
39888;SDS011;25563;50.844;4.308;2022-11-15T03:19:35;21.40;;;13.20;;
39888;SDS011;25563;50.844;4.308;2022-11-15T03:22:17;13.85;;;12.40;;
39888;SDS011;25563;50.844;4.308;2022-11-15T03:24:51;16.38;;;11.57;;
39888;SDS011;25563;50.844;4.308;2022-11-15T03:27:27;16.45;;;12.57;;
39888;SDS011;25563;50.844;4.308;2022-11-15T03:32:37;18.73;;;10.20;;
39888;SDS011;25563;50.844;4.308;2022-11-15T03:35:09;15.27;;;11.00;;
39888;SDS011;25563;50.844;4.308;2022-11-15T03:40:16;12.20;;;10.32;;
39888;SDS011;25563;50.844;4.308;2022-11-15T03:42:48;14.73;;;9.70;;
39888;SDS011;25563;50.844;4.308;2022-11-15T03:45:37;15.80;;;9.80;;
39888;SDS011;25563;50.844;4.308;2022-11-15T03:48:24;11.55;;;10.20;;
39888;SDS011;25563;50.844;4.308;2022-11-15T03:50:52;17.67;;;9.38;;
39888;SDS011;25563;50.844;4.308;2022-11-15T03:53:19;11.48;;;9.70;;
39888;SDS011;25563;50.844;4.308;2022-11-15T03:55:44;15.95;;;9.40;;
39888;SDS011;25563;50.844;4.308;2022-11-15T03:58:10;10.80;;;9.68;;
39888;SDS011;25563;50.844;4.308;2022-11-15T04:00:36;13.10;;;9.60;;
39888;SDS011;25563;50.844;4.308;2022-11-15T04:03:01;13.00;;;9.85;;
39888;SDS011;25563;50.844;4.308;2022-11-15T04:05:27;13.45;;;10.15;;
39888;SDS011;25563;50.844;4.308;2022-11-15T04:07:53;13.30;;;9.02;;
39888;SDS011;25563;50.844;4.308;2022-11-15T04:10:19;10.68;;;8.45;;
39888;SDS011;25563;50.844;4.308;2022-11-15T04:12:45;11.98;;;8.05;;
39888;SDS011;25563;50.844;4.308;2022-11-15T04:15:14;11.02;;;9.40;;
39888;SDS011;25563;50.844;4.308;2022-11-15T04:17:50;9.98;;;8.73;;
39888;SDS011;25563;50.844;4.308;2022-11-15T04:20:25;18.65;;;9.35;;
39888;SDS011;25563;50.844;4.308;2022-11-15T04:23:13;19.35;;;8.75;;
39888;SDS011;25563;50.844;4.308;2022-11-15T04:26:05;8.25;;;7.43;;
39888;SDS011;25563;50.844;4.308;2022-11-15T04:28:33;8.13;;;7.00;;
39888;SDS011;25563;50.844;4.308;2022-11-15T04:30:59;9.13;;;7.30;;
39888;SDS011;25563;50.844;4.308;2022-11-15T04:33:24;9.23;;;6.75;;
39888;SDS011;25563;50.844;4.308;2022-11-15T04:35:50;8.45;;;7.65;;
39888;SDS011;25563;50.844;4.308;2022-11-15T04:38:36;15.80;;;7.43;;
39888;SDS011;25563;50.844;4.308;2022-11-15T04:41:02;9.43;;;5.80;;
39888;SDS011;25563;50.844;4.308;2022-11-15T04:43:28;7.15;;;6.45;;
39888;SDS011;25563;50.844;4.308;2022-11-15T04:45:54;9.07;;;7.20;;
39888;SDS011;25563;50.844;4.308;2022-11-15T04:48:20;7.18;;;6.38;;
39888;SDS011;25563;50.844;4.308;2022-11-15T04:50:48;9.57;;;6.90;;
39888;SDS011;25563;50.844;4.308;2022-11-15T04:53:14;9.75;;;6.22;;
39888;SDS011;25563;50.844;4.308;2022-11-15T04:55:39;14.98;;;7.05;;
39888;SDS011;25563;50.844;4.308;2022-11-15T04:58:08;9.83;;;6.20;;
39888;SDS011;25563;50.844;4.308;2022-11-15T05:00:34;8.52;;;6.35;;
39888;SDS011;25563;50.844;4.308;2022-11-15T05:03:00;6.53;;;5.90;;
39888;SDS011;25563;50.844;4.308;2022-11-15T05:05:45;6.38;;;5.88;;
39888;SDS011;25563;50.844;4.308;2022-11-15T05:08:11;11.50;;;7.40;;
39888;SDS011;25563;50.844;4.308;2022-11-15T05:10:36;10.73;;;6.78;;
39888;SDS011;25563;50.844;4.308;2022-11-15T05:13:02;9.27;;;6.90;;
39888;SDS011;25563;50.844;4.308;2022-11-15T05:15:28;11.40;;;6.60;;
39888;SDS011;25563;50.844;4.308;2022-11-15T05:17:57;10.82;;;6.70;;
39888;SDS011;25563;50.844;4.308;2022-11-15T05:20:24;8.18;;;6.95;;
39888;SDS011;25563;50.844;4.308;2022-11-15T05:22:50;10.15;;;6.53;;
39888;SDS011;25563;50.844;4.308;2022-11-15T05:25:16;13.77;;;6.78;;
39888;SDS011;25563;50.844;4.308;2022-11-15T05:27:41;14.73;;;7.45;;
39888;SDS011;25563;50.844;4.308;2022-11-15T05:30:07;11.65;;;6.15;;
39888;SDS011;25563;50.844;4.308;2022-11-15T05:32:33;12.27;;;6.70;;
39888;SDS011;25563;50.844;4.308;2022-11-15T05:34:59;10.30;;;6.38;;
39888;SDS011;25563;50.844;4.308;2022-11-15T05:37:24;8.98;;;5.78;;
39888;SDS011;25563;50.844;4.308;2022-11-15T05:39:50;13.65;;;5.85;;
39888;SDS011;25563;50.844;4.308;2022-11-15T05:42:16;11.63;;;5.70;;
39888;SDS011;25563;50.844;4.308;2022-11-15T05:44:44;7.97;;;5.22;;
39888;SDS011;25563;50.844;4.308;2022-11-15T05:47:16;18.88;;;5.97;;
39888;SDS011;25563;50.844;4.308;2022-11-15T05:49:45;10.90;;;5.70;;
39888;SDS011;25563;50.844;4.308;2022-11-15T05:52:13;16.65;;;6.47;;
39888;SDS011;25563;50.844;4.308;2022-11-15T05:54:43;11.95;;;5.50;;
39888;SDS011;25563;50.844;4.308;2022-11-15T05:57:10;10.38;;;4.93;;
39888;SDS011;25563;50.844;4.308;2022-11-15T05:59:36;13.90;;;5.35;;
39888;SDS011;25563;50.844;4.308;2022-11-15T06:02:03;8.98;;;4.95;;
39888;SDS011;25563;50.844;4.308;2022-11-15T06:04:28;13.77;;;5.43;;
39888;SDS011;25563;50.844;4.308;2022-11-15T06:06:54;12.32;;;5.78;;
39888;SDS011;25563;50.844;4.308;2022-11-15T06:09:20;10.85;;;5.53;;
39888;SDS011;25563;50.844;4.308;2022-11-15T06:11:46;19.42;;;5.85;;
39888;SDS011;25563;50.844;4.308;2022-11-15T06:14:12;12.07;;;6.72;;
39888;SDS011;25563;50.844;4.308;2022-11-15T06:16:38;10.65;;;6.20;;
39888;SDS011;25563;50.844;4.308;2022-11-15T06:19:05;13.23;;;5.68;;
39888;SDS011;25563;50.844;4.308;2022-11-15T06:21:31;8.00;;;5.18;;
39888;SDS011;25563;50.844;4.308;2022-11-15T06:23:58;15.43;;;5.32;;
39888;SDS011;25563;50.844;4.308;2022-11-15T06:26:23;9.88;;;5.53;;
39888;SDS011;25563;50.844;4.308;2022-11-15T06:28:49;9.23;;;6.10;;
39888;SDS011;25563;50.844;4.308;2022-11-15T06:31:15;12.98;;;5.82;;
39888;SDS011;25563;50.844;4.308;2022-11-15T06:33:40;11.52;;;6.10;;
39888;SDS011;25563;50.844;4.308;2022-11-15T06:36:07;12.45;;;6.32;;
39888;SDS011;25563;50.844;4.308;2022-11-15T06:38:34;15.73;;;6.10;;
39888;SDS011;25563;50.844;4.308;2022-11-15T06:41:02;12.30;;;6.18;;
39888;SDS011;25563;50.844;4.308;2022-11-15T06:43:29;7.35;;;6.40;;
39888;SDS011;25563;50.844;4.308;2022-11-15T06:45:56;11.73;;;6.47;;
39888;SDS011;25563;50.844;4.308;2022-11-15T06:48:23;9.85;;;6.13;;
39888;SDS011;25563;50.844;4.308;2022-11-15T06:50:52;11.52;;;5.68;;
39888;SDS011;25563;50.844;4.308;2022-11-15T06:53:22;9.55;;;5.80;;
39888;SDS011;25563;50.844;4.308;2022-11-15T06:55:49;9.52;;;6.28;;
39888;SDS011;25563;50.844;4.308;2022-11-15T06:58:14;6.78;;;5.82;;
39888;SDS011;25563;50.844;4.308;2022-11-15T07:00:40;9.73;;;6.30;;
39888;SDS011;25563;50.844;4.308;2022-11-15T07:03:06;13.20;;;7.50;;
39888;SDS011;25563;50.844;4.308;2022-11-15T07:05:33;9.65;;;5.30;;
39888;SDS011;25563;50.844;4.308;2022-11-15T07:08:00;10.23;;;6.00;;
39888;SDS011;25563;50.844;4.308;2022-11-15T07:10:26;12.40;;;6.10;;
39888;SDS011;25563;50.844;4.308;2022-11-15T07:12:53;10.23;;;5.68;;
39888;SDS011;25563;50.844;4.308;2022-11-15T07:15:20;11.57;;;5.00;;
39888;SDS011;25563;50.844;4.308;2022-11-15T07:17:48;7.25;;;4.53;;
39888;SDS011;25563;50.844;4.308;2022-11-15T07:20:14;8.10;;;4.80;;
39888;SDS011;25563;50.844;4.308;2022-11-15T07:22:40;9.35;;;4.45;;
39888;SDS011;25563;50.844;4.308;2022-11-15T07:25:07;9.85;;;4.75;;
39888;SDS011;25563;50.844;4.308;2022-11-15T07:27:34;7.07;;;4.70;;
39888;SDS011;25563;50.844;4.308;2022-11-15T07:30:00;13.23;;;5.93;;
39888;SDS011;25563;50.844;4.308;2022-11-15T07:32:26;18.85;;;5.88;;
39888;SDS011;25563;50.844;4.308;2022-11-15T07:34:52;9.95;;;4.97;;
39888;SDS011;25563;50.844;4.308;2022-11-15T07:37:18;11.63;;;5.78;;
39888;SDS011;25563;50.844;4.308;2022-11-15T07:39:43;6.20;;;4.47;;
39888;SDS011;25563;50.844;4.308;2022-11-15T07:42:09;11.23;;;4.50;;
39888;SDS011;25563;50.844;4.308;2022-11-15T07:44:54;4.80;;;4.35;;
39888;SDS011;25563;50.844;4.308;2022-11-15T07:47:20;10.38;;;3.92;;
39888;SDS011;25563;50.844;4.308;2022-11-15T07:49:46;7.20;;;3.88;;
39888;SDS011;25563;50.844;4.308;2022-11-15T07:52:13;14.35;;;5.53;;
39888;SDS011;25563;50.844;4.308;2022-11-15T07:54:40;10.80;;;4.47;;
39888;SDS011;25563;50.844;4.308;2022-11-15T07:57:06;8.93;;;5.82;;
39888;SDS011;25563;50.844;4.308;2022-11-15T07:59:34;9.18;;;5.10;;
39888;SDS011;25563;50.844;4.308;2022-11-15T08:02:00;12.45;;;5.15;;
39888;SDS011;25563;50.844;4.308;2022-11-15T08:04:25;5.70;;;5.20;;
39888;SDS011;25563;50.844;4.308;2022-11-15T08:06:52;6.88;;;4.32;;
39888;SDS011;25563;50.844;4.308;2022-11-15T08:09:18;8.98;;;3.80;;
39888;SDS011;25563;50.844;4.308;2022-11-15T08:11:43;8.15;;;2.95;;
39888;SDS011;25563;50.844;4.308;2022-11-15T08:14:09;4.15;;;3.28;;
39888;SDS011;25563;50.844;4.308;2022-11-15T08:16:35;6.55;;;3.33;;
39888;SDS011;25563;50.844;4.308;2022-11-15T08:19:00;8.73;;;3.25;;
39888;SDS011;25563;50.844;4.308;2022-11-15T08:21:26;14.25;;;3.47;;
39888;SDS011;25563;50.844;4.308;2022-11-15T08:23:52;4.10;;;3.00;;
39888;SDS011;25563;50.844;4.308;2022-11-15T08:26:18;8.57;;;3.05;;
39888;SDS011;25563;50.844;4.308;2022-11-15T08:28:44;7.40;;;3.70;;
39888;SDS011;25563;50.844;4.308;2022-11-15T08:31:13;5.68;;;3.40;;
39888;SDS011;25563;50.844;4.308;2022-11-15T08:33:41;6.18;;;3.08;;
39888;SDS011;25563;50.844;4.308;2022-11-15T08:36:10;6.38;;;3.00;;
39888;SDS011;25563;50.844;4.308;2022-11-15T08:38:39;4.93;;;2.50;;
39888;SDS011;25563;50.844;4.308;2022-11-15T08:41:04;4.22;;;2.63;;
39888;SDS011;25563;50.844;4.308;2022-11-15T08:43:31;7.03;;;2.63;;
39888;SDS011;25563;50.844;4.308;2022-11-15T08:45:57;6.30;;;2.70;;
39888;SDS011;25563;50.844;4.308;2022-11-15T08:48:24;11.90;;;2.95;;
39888;SDS011;25563;50.844;4.308;2022-11-15T08:50:56;3.15;;;1.52;;
39888;SDS011;25563;50.844;4.308;2022-11-15T08:53:22;7.07;;;2.15;;
39888;SDS011;25563;50.844;4.308;2022-11-15T08:55:52;10.95;;;2.05;;
39888;SDS011;25563;50.844;4.308;2022-11-15T08:58:19;7.20;;;2.33;;
39888;SDS011;25563;50.844;4.308;2022-11-15T09:00:47;7.68;;;2.53;;
39888;SDS011;25563;50.844;4.308;2022-11-15T09:03:15;6.00;;;2.47;;
39888;SDS011;25563;50.844;4.308;2022-11-15T09:05:41;7.47;;;2.00;;
39888;SDS011;25563;50.844;4.308;2022-11-15T09:08:07;7.85;;;2.30;;
39888;SDS011;25563;50.844;4.308;2022-11-15T09:10:34;7.90;;;1.80;;
39888;SDS011;25563;50.844;4.308;2022-11-15T09:13:00;9.07;;;2.28;;
39888;SDS011;25563;50.844;4.308;2022-11-15T09:15:25;4.80;;;2.63;;
39888;SDS011;25563;50.844;4.308;2022-11-15T09:17:51;3.95;;;1.83;;
39888;SDS011;25563;50.844;4.308;2022-11-15T09:20:17;10.32;;;2.25;;
39888;SDS011;25563;50.844;4.308;2022-11-15T09:22:42;8.18;;;1.92;;
39888;SDS011;25563;50.844;4.308;2022-11-15T09:25:08;6.13;;;1.77;;
39888;SDS011;25563;50.844;4.308;2022-11-15T09:27:34;10.20;;;2.22;;
39888;SDS011;25563;50.844;4.308;2022-11-15T09:30:00;6.70;;;1.80;;
39888;SDS011;25563;50.844;4.308;2022-11-15T09:32:32;10.15;;;2.60;;
39888;SDS011;25563;50.844;4.308;2022-11-15T09:35:00;8.85;;;1.65;;
39888;SDS011;25563;50.844;4.308;2022-11-15T09:37:26;9.70;;;1.50;;
39888;SDS011;25563;50.844;4.308;2022-11-15T09:39:52;5.82;;;1.73;;
39888;SDS011;25563;50.844;4.308;2022-11-15T09:50:42;10.70;;;1.70;;
39888;SDS011;25563;50.844;4.308;2022-11-15T09:53:14;8.90;;;1.48;;
39888;SDS011;25563;50.844;4.308;2022-11-15T09:56:01;5.72;;;2.22;;
39888;SDS011;25563;50.844;4.308;2022-11-15T09:58:39;7.63;;;1.48;;
39888;SDS011;25563;50.844;4.308;2022-11-15T10:01:20;9.60;;;1.70;;
39888;SDS011;25563;50.844;4.308;2022-11-15T10:04:05;4.22;;;1.80;;
39888;SDS011;25563;50.844;4.308;2022-11-15T10:06:32;4.50;;;1.73;;
39888;SDS011;25563;50.844;4.308;2022-11-15T10:11:52;5.45;;;1.30;;
39888;SDS011;25563;50.844;4.308;2022-11-15T10:14:19;6.93;;;2.10;;
39888;SDS011;25563;50.844;4.308;2022-11-15T10:19:49;7.53;;;1.80;;
39888;SDS011;25563;50.844;4.308;2022-11-15T10:27:25;10.55;;;1.80;;
39888;SDS011;25563;50.844;4.308;2022-11-15T10:29:50;7.65;;;1.55;;
39888;SDS011;25563;50.844;4.308;2022-11-15T10:32:17;11.38;;;2.60;;
39888;SDS011;25563;50.844;4.308;2022-11-15T10:34:44;10.13;;;1.70;;
39888;SDS011;25563;50.844;4.308;2022-11-15T10:37:11;10.27;;;1.63;;
39888;SDS011;25563;50.844;4.308;2022-11-15T10:39:37;5.85;;;1.90;;
39888;SDS011;25563;50.844;4.308;2022-11-15T10:42:25;10.20;;;2.08;;
39888;SDS011;25563;50.844;4.308;2022-11-15T10:44:52;5.70;;;1.50;;
39888;SDS011;25563;50.844;4.308;2022-11-15T10:47:23;6.55;;;1.17;;
39888;SDS011;25563;50.844;4.308;2022-11-15T10:50:26;7.88;;;1.67;;
39888;SDS011;25563;50.844;4.308;2022-11-15T10:52:59;11.73;;;2.05;;
39888;SDS011;25563;50.844;4.308;2022-11-15T10:55:28;5.82;;;1.40;;
39888;SDS011;25563;50.844;4.308;2022-11-15T10:58:18;6.73;;;1.30;;
39888;SDS011;25563;50.844;4.308;2022-11-15T11:00:54;8.43;;;1.48;;
39888;SDS011;25563;50.844;4.308;2022-11-15T11:03:25;6.13;;;1.30;;
39888;SDS011;25563;50.844;4.308;2022-11-15T11:06:08;5.97;;;1.85;;
39888;SDS011;25563;50.844;4.308;2022-11-15T11:08:37;6.22;;;1.83;;
39888;SDS011;25563;50.844;4.308;2022-11-15T11:11:03;10.02;;;2.15;;
39888;SDS011;25563;50.844;4.308;2022-11-15T11:16:00;6.60;;;1.95;;
39888;SDS011;25563;50.844;4.308;2022-11-15T11:18:41;9.43;;;2.47;;
39888;SDS011;25563;50.844;4.308;2022-11-15T11:21:38;12.88;;;2.70;;
39888;SDS011;25563;50.844;4.308;2022-11-15T11:24:45;5.88;;;1.52;;
39888;SDS011;25563;50.844;4.308;2022-11-15T11:27:32;8.32;;;2.15;;
39888;SDS011;25563;50.844;4.308;2022-11-15T11:30:18;6.40;;;1.58;;
39888;SDS011;25563;50.844;4.308;2022-11-15T11:36:08;7.00;;;1.27;;
39888;SDS011;25563;50.844;4.308;2022-11-15T11:38:51;5.13;;;1.92;;
39888;SDS011;25563;50.844;4.308;2022-11-15T11:47:39;5.72;;;1.45;;
39888;SDS011;25563;50.844;4.308;2022-11-15T11:52:59;4.68;;;1.60;;
39888;SDS011;25563;50.844;4.308;2022-11-15T11:55:34;7.20;;;1.50;;
39888;SDS011;25563;50.844;4.308;2022-11-15T12:04:05;5.45;;;1.80;;
39888;SDS011;25563;50.844;4.308;2022-11-15T12:06:50;6.00;;;1.50;;
39888;SDS011;25563;50.844;4.308;2022-11-15T12:09:51;8.88;;;1.33;;
39888;SDS011;25563;50.844;4.308;2022-11-15T12:18:12;5.15;;;1.63;;
39888;SDS011;25563;50.844;4.308;2022-11-15T12:20:41;9.18;;;1.48;;
39888;SDS011;25563;50.844;4.308;2022-11-15T12:23:18;16.60;;;2.10;;
39888;SDS011;25563;50.844;4.308;2022-11-15T12:25:50;7.75;;;1.17;;
39888;SDS011;25563;50.844;4.308;2022-11-15T12:28:38;7.68;;;1.38;;
39888;SDS011;25563;50.844;4.308;2022-11-15T12:31:09;5.67;;;0.93;;
39888;SDS011;25563;50.844;4.308;2022-11-15T12:36:39;4.88;;;1.58;;
39888;SDS011;25563;50.844;4.308;2022-11-15T12:39:09;10.00;;;2.33;;
39888;SDS011;25563;50.844;4.308;2022-11-15T12:41:40;22.42;;;10.95;;
39888;SDS011;25563;50.844;4.308;2022-11-15T12:44:13;8.23;;;2.10;;
39888;SDS011;25563;50.844;4.308;2022-11-15T12:52:04;4.22;;;1.70;;
39888;SDS011;25563;50.844;4.308;2022-11-15T12:59:53;8.05;;;1.73;;
39888;SDS011;25563;50.844;4.308;2022-11-15T13:02:42;2.72;;;1.63;;
39888;SDS011;25563;50.844;4.308;2022-11-15T13:21:19;5.30;;;2.17;;
39888;SDS011;25563;50.844;4.308;2022-11-15T13:24:10;5.30;;;1.80;;
39888;SDS011;25563;50.844;4.308;2022-11-15T13:26:39;8.05;;;1.63;;
39888;SDS011;25563;50.844;4.308;2022-11-15T13:29:12;2.63;;;1.60;;
39888;SDS011;25563;50.844;4.308;2022-11-15T13:31:42;5.03;;;1.30;;
39888;SDS011;25563;50.844;4.308;2022-11-15T13:34:22;4.40;;;1.20;;
39888;SDS011;25563;50.844;4.308;2022-11-15T13:41:57;4.00;;;1.30;;
39888;SDS011;25563;50.844;4.308;2022-11-15T13:44:24;4.10;;;1.60;;
39888;SDS011;25563;50.844;4.308;2022-11-15T13:47:05;3.08;;;1.30;;
39888;SDS011;25563;50.844;4.308;2022-11-15T13:49:34;3.63;;;1.10;;
39888;SDS011;25563;50.844;4.308;2022-11-15T13:52:03;4.90;;;1.40;;
39888;SDS011;25563;50.844;4.308;2022-11-15T13:54:39;4.95;;;1.23;;
39888;SDS011;25563;50.844;4.308;2022-11-15T13:57:12;10.15;;;1.60;;
39888;SDS011;25563;50.844;4.308;2022-11-15T13:59:54;1.92;;;0.93;;
39888;SDS011;25563;50.844;4.308;2022-11-15T14:02:27;2.45;;;1.70;;
39888;SDS011;25563;50.844;4.308;2022-11-15T14:05:16;4.55;;;1.52;;
39888;SDS011;25563;50.844;4.308;2022-11-15T14:07:52;6.78;;;1.65;;
39888;SDS011;25563;50.844;4.308;2022-11-15T14:12:58;5.65;;;2.20;;
39888;SDS011;25563;50.844;4.308;2022-11-15T14:15:27;5.50;;;1.95;;
39888;SDS011;25563;50.844;4.308;2022-11-15T14:18:02;5.18;;;1.98;;
39888;SDS011;25563;50.844;4.308;2022-11-15T14:20:31;3.67;;;1.70;;
39888;SDS011;25563;50.844;4.308;2022-11-15T14:23:00;5.43;;;1.48;;
39888;SDS011;25563;50.844;4.308;2022-11-15T14:25:33;7.50;;;1.70;;
39888;SDS011;25563;50.844;4.308;2022-11-15T14:30:47;5.97;;;1.80;;
39888;SDS011;25563;50.844;4.308;2022-11-15T14:36:04;1.95;;;1.65;;
39888;SDS011;25563;50.844;4.308;2022-11-15T14:38:31;6.18;;;1.38;;
39888;SDS011;25563;50.844;4.308;2022-11-15T14:40:57;3.75;;;1.60;;
39888;SDS011;25563;50.844;4.308;2022-11-15T14:43:23;6.80;;;1.90;;
39888;SDS011;25563;50.844;4.308;2022-11-15T14:45:49;8.77;;;1.42;;
39888;SDS011;25563;50.844;4.308;2022-11-15T14:48:15;4.90;;;1.77;;
39888;SDS011;25563;50.844;4.308;2022-11-15T14:50:40;8.27;;;1.75;;
39888;SDS011;25563;50.844;4.308;2022-11-15T14:53:06;5.40;;;2.00;;
39888;SDS011;25563;50.844;4.308;2022-11-15T14:55:36;9.80;;;2.58;;
39888;SDS011;25563;50.844;4.308;2022-11-15T14:58:02;5.05;;;2.20;;
39888;SDS011;25563;50.844;4.308;2022-11-15T15:00:30;4.35;;;2.13;;
39888;SDS011;25563;50.844;4.308;2022-11-15T15:02:56;3.22;;;1.85;;
39888;SDS011;25563;50.844;4.308;2022-11-15T15:05:24;2.58;;;1.63;;
39888;SDS011;25563;50.844;4.308;2022-11-15T15:08:00;2.80;;;1.20;;
39888;SDS011;25563;50.844;4.308;2022-11-15T15:10:34;3.70;;;1.45;;
39888;SDS011;25563;50.844;4.308;2022-11-15T15:13:02;4.35;;;1.70;;
39888;SDS011;25563;50.844;4.308;2022-11-15T15:15:33;1.95;;;1.60;;
39888;SDS011;25563;50.844;4.308;2022-11-15T15:18:00;3.42;;;1.60;;
39888;SDS011;25563;50.844;4.308;2022-11-15T15:20:26;2.35;;;1.55;;
39888;SDS011;25563;50.844;4.308;2022-11-15T15:22:53;2.33;;;1.45;;
39888;SDS011;25563;50.844;4.308;2022-11-15T15:25:21;3.35;;;3.05;;
39888;SDS011;25563;50.844;4.308;2022-11-15T15:27:56;2.10;;;1.77;;
39888;SDS011;25563;50.844;4.308;2022-11-15T15:30:23;3.92;;;1.92;;
39888;SDS011;25563;50.844;4.308;2022-11-15T15:32:49;3.90;;;2.25;;
39888;SDS011;25563;50.844;4.308;2022-11-15T15:35:15;3.40;;;2.28;;
39888;SDS011;25563;50.844;4.308;2022-11-15T15:37:42;3.25;;;1.90;;
39888;SDS011;25563;50.844;4.308;2022-11-15T15:40:19;3.45;;;2.30;;
39888;SDS011;25563;50.844;4.308;2022-11-15T15:42:46;3.22;;;2.53;;
39888;SDS011;25563;50.844;4.308;2022-11-15T15:45:13;3.15;;;2.72;;
39888;SDS011;25563;50.844;4.308;2022-11-15T15:47:40;4.95;;;2.60;;
39888;SDS011;25563;50.844;4.308;2022-11-15T15:50:24;3.08;;;2.38;;
39888;SDS011;25563;50.844;4.308;2022-11-15T15:52:55;2.70;;;2.47;;
39888;SDS011;25563;50.844;4.308;2022-11-15T15:55:24;4.13;;;2.50;;
39888;SDS011;25563;50.844;4.308;2022-11-15T15:57:52;2.63;;;2.22;;
39888;SDS011;25563;50.844;4.308;2022-11-15T16:00:18;3.40;;;2.78;;
39888;SDS011;25563;50.844;4.308;2022-11-15T16:02:45;3.50;;;2.45;;
39888;SDS011;25563;50.844;4.308;2022-11-15T16:05:13;3.22;;;2.80;;
39888;SDS011;25563;50.844;4.308;2022-11-15T16:07:39;5.00;;;2.50;;
39888;SDS011;25563;50.844;4.308;2022-11-15T16:10:22;5.32;;;2.42;;
39888;SDS011;25563;50.844;4.308;2022-11-15T16:12:52;4.18;;;3.05;;
39888;SDS011;25563;50.844;4.308;2022-11-15T16:15:19;2.95;;;2.28;;
39888;SDS011;25563;50.844;4.308;2022-11-15T16:17:56;4.82;;;2.45;;
39888;SDS011;25563;50.844;4.308;2022-11-15T16:20:38;6.38;;;2.97;;
39888;SDS011;25563;50.844;4.308;2022-11-15T16:23:12;3.70;;;2.47;;
39888;SDS011;25563;50.844;4.308;2022-11-15T16:25:48;3.95;;;3.10;;
39888;SDS011;25563;50.844;4.308;2022-11-15T16:28:22;6.65;;;3.72;;
39888;SDS011;25563;50.844;4.308;2022-11-15T16:30:58;4.03;;;3.13;;
39888;SDS011;25563;50.844;4.308;2022-11-15T16:33:26;3.78;;;2.90;;
39888;SDS011;25563;50.844;4.308;2022-11-15T16:35:52;5.82;;;2.83;;
39888;SDS011;25563;50.844;4.308;2022-11-15T16:38:18;3.35;;;3.05;;
39888;SDS011;25563;50.844;4.308;2022-11-15T16:40:43;3.75;;;2.95;;
39888;SDS011;25563;50.844;4.308;2022-11-15T16:43:09;3.70;;;3.40;;
39888;SDS011;25563;50.844;4.308;2022-11-15T16:45:35;5.10;;;2.78;;
39888;SDS011;25563;50.844;4.308;2022-11-15T16:48:02;3.17;;;2.88;;
39888;SDS011;25563;50.844;4.308;2022-11-15T16:50:28;3.40;;;3.10;;
39888;SDS011;25563;50.844;4.308;2022-11-15T16:52:58;7.87;;;4.07;;
39888;SDS011;25563;50.844;4.308;2022-11-15T16:55:24;4.22;;;3.83;;
39888;SDS011;25563;50.844;4.308;2022-11-15T16:57:53;3.53;;;3.20;;
39888;SDS011;25563;50.844;4.308;2022-11-15T17:00:19;3.83;;;3.53;;
39888;SDS011;25563;50.844;4.308;2022-11-15T17:02:46;4.18;;;3.78;;
39888;SDS011;25563;50.844;4.308;2022-11-15T17:05:14;3.85;;;3.53;;
39888;SDS011;25563;50.844;4.308;2022-11-15T17:07:42;4.05;;;3.17;;